sensor_id;sensor_type;location;lat;lon;timestamp;temperature;humidity
49579;DHT22;35483;50.828;3.228;2023-04-03T00:01:28;4.20;99.90
49579;DHT22;35483;50.828;3.228;2023-04-03T00:03:55;4.10;99.90
49579;DHT22;35483;50.828;3.228;2023-04-03T00:06:21;4.10;99.90
49579;DHT22;35483;50.828;3.228;2023-04-03T00:08:47;4.10;99.90
49579;DHT22;35483;50.828;3.228;2023-04-03T00:11:13;4.10;99.90
49579;DHT22;35483;50.828;3.228;2023-04-03T00:13:39;4.10;99.90
49579;DHT22;35483;50.828;3.228;2023-04-03T00:16:06;4.00;99.90
49579;DHT22;35483;50.828;3.228;2023-04-03T00:18:32;4.00;99.90
49579;DHT22;35483;50.828;3.228;2023-04-03T00:20:57;4.00;99.90
49579;DHT22;35483;50.828;3.228;2023-04-03T00:23:23;4.00;99.90
49579;DHT22;35483;50.828;3.228;2023-04-03T00:25:49;4.00;99.90
49579;DHT22;35483;50.828;3.228;2023-04-03T00:28:15;4.00;99.90
49579;DHT22;35483;50.828;3.228;2023-04-03T00:30:41;4.00;99.90
49579;DHT22;35483;50.828;3.228;2023-04-03T00:33:08;4.00;99.90
49579;DHT22;35483;50.828;3.228;2023-04-03T00:35:34;4.00;99.90
49579;DHT22;35483;50.828;3.228;2023-04-03T00:38:00;4.10;99.90
49579;DHT22;35483;50.828;3.228;2023-04-03T00:40:27;4.10;99.90
49579;DHT22;35483;50.828;3.228;2023-04-03T00:42:58;4.00;99.90
49579;DHT22;35483;50.828;3.228;2023-04-03T00:45:36;4.00;99.90
49579;DHT22;35483;50.828;3.228;2023-04-03T00:48:05;4.00;99.90
49579;DHT22;35483;50.828;3.228;2023-04-03T00:50:34;3.90;99.90
49579;DHT22;35483;50.828;3.228;2023-04-03T00:53:01;3.80;99.90
49579;DHT22;35483;50.828;3.228;2023-04-03T00:55:27;3.80;99.90
49579;DHT22;35483;50.828;3.228;2023-04-03T00:57:54;3.80;99.90
49579;DHT22;35483;50.828;3.228;2023-04-03T01:00:22;3.80;99.90
49579;DHT22;35483;50.828;3.228;2023-04-03T01:02:49;3.80;99.90
49579;DHT22;35483;50.828;3.228;2023-04-03T01:05:16;3.90;99.90
49579;DHT22;35483;50.828;3.228;2023-04-03T01:07:43;3.90;99.90
49579;DHT22;35483;50.828;3.228;2023-04-03T01:10:13;3.90;99.90
49579;DHT22;35483;50.828;3.228;2023-04-03T01:12:42;3.80;99.90
49579;DHT22;35483;50.828;3.228;2023-04-03T01:15:19;3.80;99.90
49579;DHT22;35483;50.828;3.228;2023-04-03T01:25:36;3.60;99.90
49579;DHT22;35483;50.828;3.228;2023-04-03T01:28:04;3.60;99.90
49579;DHT22;35483;50.828;3.228;2023-04-03T01:30:36;3.50;99.90
49579;DHT22;35483;50.828;3.228;2023-04-03T01:33:03;3.60;99.90
49579;DHT22;35483;50.828;3.228;2023-04-03T01:35:29;3.50;99.90
49579;DHT22;35483;50.828;3.228;2023-04-03T01:37:55;3.50;99.90
49579;DHT22;35483;50.828;3.228;2023-04-03T01:40:21;3.50;99.90
49579;DHT22;35483;50.828;3.228;2023-04-03T01:42:47;3.50;99.90
49579;DHT22;35483;50.828;3.228;2023-04-03T01:45:13;3.60;99.90
49579;DHT22;35483;50.828;3.228;2023-04-03T01:47:38;3.60;99.90
49579;DHT22;35483;50.828;3.228;2023-04-03T01:50:05;3.60;99.90
49579;DHT22;35483;50.828;3.228;2023-04-03T01:52:30;3.60;99.90
49579;DHT22;35483;50.828;3.228;2023-04-03T01:54:56;3.60;99.90
49579;DHT22;35483;50.828;3.228;2023-04-03T01:57:22;3.60;99.90
49579;DHT22;35483;50.828;3.228;2023-04-03T01:59:47;3.60;99.90
49579;DHT22;35483;50.828;3.228;2023-04-03T02:02:13;3.60;99.90
49579;DHT22;35483;50.828;3.228;2023-04-03T02:04:40;3.60;99.90
49579;DHT22;35483;50.828;3.228;2023-04-03T02:07:06;3.60;99.90
49579;DHT22;35483;50.828;3.228;2023-04-03T02:09:32;3.50;99.90
49579;DHT22;35483;50.828;3.228;2023-04-03T02:11:57;3.40;99.90
49579;DHT22;35483;50.828;3.228;2023-04-03T02:14:23;3.40;99.90
49579;DHT22;35483;50.828;3.228;2023-04-03T02:16:49;3.40;99.90
49579;DHT22;35483;50.828;3.228;2023-04-03T02:19:15;3.40;99.90
49579;DHT22;35483;50.828;3.228;2023-04-03T02:21:41;3.40;99.90
49579;DHT22;35483;50.828;3.228;2023-04-03T02:24:07;3.40;99.90
49579;DHT22;35483;50.828;3.228;2023-04-03T02:26:33;3.30;99.90
49579;DHT22;35483;50.828;3.228;2023-04-03T02:28:58;3.30;99.90
49579;DHT22;35483;50.828;3.228;2023-04-03T02:31:24;3.30;99.90
49579;DHT22;35483;50.828;3.228;2023-04-03T02:33:50;3.20;99.90
49579;DHT22;35483;50.828;3.228;2023-04-03T02:36:16;3.20;99.90
49579;DHT22;35483;50.828;3.228;2023-04-03T02:38:42;3.20;99.90
49579;DHT22;35483;50.828;3.228;2023-04-03T02:41:10;3.20;99.90
49579;DHT22;35483;50.828;3.228;2023-04-03T02:43:36;3.20;99.90
49579;DHT22;35483;50.828;3.228;2023-04-03T02:46:02;3.20;99.90
49579;DHT22;35483;50.828;3.228;2023-04-03T02:48:29;3.20;99.90
49579;DHT22;35483;50.828;3.228;2023-04-03T02:50:55;3.30;99.90
49579;DHT22;35483;50.828;3.228;2023-04-03T02:53:21;3.30;99.90
49579;DHT22;35483;50.828;3.228;2023-04-03T02:55:48;3.30;99.90
49579;DHT22;35483;50.828;3.228;2023-04-03T02:58:13;3.20;99.90
49579;DHT22;35483;50.828;3.228;2023-04-03T03:00:39;3.20;99.90
49579;DHT22;35483;50.828;3.228;2023-04-03T03:03:05;3.20;99.90
49579;DHT22;35483;50.828;3.228;2023-04-03T03:05:31;3.20;99.90
49579;DHT22;35483;50.828;3.228;2023-04-03T03:07:57;3.10;99.90
49579;DHT22;35483;50.828;3.228;2023-04-03T03:10:23;3.10;99.90
49579;DHT22;35483;50.828;3.228;2023-04-03T03:12:49;3.10;99.90
49579;DHT22;35483;50.828;3.228;2023-04-03T03:15:15;3.10;99.90
49579;DHT22;35483;50.828;3.228;2023-04-03T03:17:43;3.00;99.90
49579;DHT22;35483;50.828;3.228;2023-04-03T03:20:09;3.10;99.90
49579;DHT22;35483;50.828;3.228;2023-04-03T03:22:35;3.10;99.90
49579;DHT22;35483;50.828;3.228;2023-04-03T03:25:02;3.00;99.90
49579;DHT22;35483;50.828;3.228;2023-04-03T03:27:28;3.00;99.90
49579;DHT22;35483;50.828;3.228;2023-04-03T03:29:54;3.00;99.90
49579;DHT22;35483;50.828;3.228;2023-04-03T03:32:20;3.00;99.90
49579;DHT22;35483;50.828;3.228;2023-04-03T03:34:45;3.00;99.90
49579;DHT22;35483;50.828;3.228;2023-04-03T03:37:11;3.00;99.90
49579;DHT22;35483;50.828;3.228;2023-04-03T03:39:37;3.00;99.90
49579;DHT22;35483;50.828;3.228;2023-04-03T03:42:03;3.00;99.90
49579;DHT22;35483;50.828;3.228;2023-04-03T03:44:29;2.90;99.90
49579;DHT22;35483;50.828;3.228;2023-04-03T03:46:55;3.00;99.90
49579;DHT22;35483;50.828;3.228;2023-04-03T03:49:21;3.00;99.90
49579;DHT22;35483;50.828;3.228;2023-04-03T03:51:47;3.00;99.90
49579;DHT22;35483;50.828;3.228;2023-04-03T03:54:13;3.00;99.90
49579;DHT22;35483;50.828;3.228;2023-04-03T03:56:39;3.00;99.90
49579;DHT22;35483;50.828;3.228;2023-04-03T03:59:05;3.00;99.90
49579;DHT22;35483;50.828;3.228;2023-04-03T04:01:32;3.00;99.90
49579;DHT22;35483;50.828;3.228;2023-04-03T04:03:58;3.00;99.90
49579;DHT22;35483;50.828;3.228;2023-04-03T04:06:24;3.00;99.90
49579;DHT22;35483;50.828;3.228;2023-04-03T04:08:50;3.00;99.90
49579;DHT22;35483;50.828;3.228;2023-04-03T04:11:16;3.10;99.90
49579;DHT22;35483;50.828;3.228;2023-04-03T04:13:42;3.10;99.90
49579;DHT22;35483;50.828;3.228;2023-04-03T04:16:09;3.20;99.90
49579;DHT22;35483;50.828;3.228;2023-04-03T04:18:35;3.20;99.90
49579;DHT22;35483;50.828;3.228;2023-04-03T04:21:00;3.30;99.90
49579;DHT22;35483;50.828;3.228;2023-04-03T04:23:26;3.30;99.90
49579;DHT22;35483;50.828;3.228;2023-04-03T04:25:52;3.30;99.90
49579;DHT22;35483;50.828;3.228;2023-04-03T04:28:17;3.40;99.90
49579;DHT22;35483;50.828;3.228;2023-04-03T04:30:44;3.40;99.90
49579;DHT22;35483;50.828;3.228;2023-04-03T04:33:10;3.30;99.90
49579;DHT22;35483;50.828;3.228;2023-04-03T04:35:36;3.30;99.90
49579;DHT22;35483;50.828;3.228;2023-04-03T04:38:02;3.30;99.90
49579;DHT22;35483;50.828;3.228;2023-04-03T04:40:28;3.20;99.90
49579;DHT22;35483;50.828;3.228;2023-04-03T04:42:54;3.20;99.90
49579;DHT22;35483;50.828;3.228;2023-04-03T04:45:20;3.20;99.90
49579;DHT22;35483;50.828;3.228;2023-04-03T04:47:46;3.20;99.90
49579;DHT22;35483;50.828;3.228;2023-04-03T04:50:12;3.20;99.90
49579;DHT22;35483;50.828;3.228;2023-04-03T04:52:38;3.20;99.90
49579;DHT22;35483;50.828;3.228;2023-04-03T04:55:04;3.20;99.90
49579;DHT22;35483;50.828;3.228;2023-04-03T04:57:30;3.20;99.90
49579;DHT22;35483;50.828;3.228;2023-04-03T04:59:56;3.30;99.90
49579;DHT22;35483;50.828;3.228;2023-04-03T05:02:22;3.30;99.90
49579;DHT22;35483;50.828;3.228;2023-04-03T05:04:47;3.30;99.90
49579;DHT22;35483;50.828;3.228;2023-04-03T05:07:15;3.30;99.90
49579;DHT22;35483;50.828;3.228;2023-04-03T05:09:41;3.30;99.90
49579;DHT22;35483;50.828;3.228;2023-04-03T05:12:07;3.30;99.90
49579;DHT22;35483;50.828;3.228;2023-04-03T05:14:34;3.30;99.90
49579;DHT22;35483;50.828;3.228;2023-04-03T05:17:00;3.30;99.90
49579;DHT22;35483;50.828;3.228;2023-04-03T05:19:26;3.30;99.90
49579;DHT22;35483;50.828;3.228;2023-04-03T05:21:51;3.30;99.90
49579;DHT22;35483;50.828;3.228;2023-04-03T05:24:17;3.30;99.90
49579;DHT22;35483;50.828;3.228;2023-04-03T05:26:43;3.30;99.90
49579;DHT22;35483;50.828;3.228;2023-04-03T05:29:09;3.30;99.90
49579;DHT22;35483;50.828;3.228;2023-04-03T05:31:35;3.30;99.90
49579;DHT22;35483;50.828;3.228;2023-04-03T05:34:01;3.30;99.90
49579;DHT22;35483;50.828;3.228;2023-04-03T05:36:26;3.30;99.90
49579;DHT22;35483;50.828;3.228;2023-04-03T05:38:54;3.30;99.90
49579;DHT22;35483;50.828;3.228;2023-04-03T05:41:21;3.40;99.90
49579;DHT22;35483;50.828;3.228;2023-04-03T05:43:47;3.40;99.90
49579;DHT22;35483;50.828;3.228;2023-04-03T05:46:18;3.40;99.90
49579;DHT22;35483;50.828;3.228;2023-04-03T05:48:44;3.50;99.90
49579;DHT22;35483;50.828;3.228;2023-04-03T05:51:19;3.50;99.90
49579;DHT22;35483;50.828;3.228;2023-04-03T05:53:46;3.60;99.90
49579;DHT22;35483;50.828;3.228;2023-04-03T05:56:12;3.60;99.90
49579;DHT22;35483;50.828;3.228;2023-04-03T05:58:38;3.70;99.90
49579;DHT22;35483;50.828;3.228;2023-04-03T06:01:04;3.70;99.90
49579;DHT22;35483;50.828;3.228;2023-04-03T06:03:31;3.70;99.90
49579;DHT22;35483;50.828;3.228;2023-04-03T06:05:57;3.80;99.90
49579;DHT22;35483;50.828;3.228;2023-04-03T06:08:22;3.80;99.90
49579;DHT22;35483;50.828;3.228;2023-04-03T06:10:49;3.80;99.90
49579;DHT22;35483;50.828;3.228;2023-04-03T06:13:16;3.90;99.90
49579;DHT22;35483;50.828;3.228;2023-04-03T06:15:42;3.90;99.90
49579;DHT22;35483;50.828;3.228;2023-04-03T06:18:08;3.90;99.90
49579;DHT22;35483;50.828;3.228;2023-04-03T06:20:34;4.00;99.90
49579;DHT22;35483;50.828;3.228;2023-04-03T06:23:00;4.00;99.90
49579;DHT22;35483;50.828;3.228;2023-04-03T06:25:26;4.10;99.90
49579;DHT22;35483;50.828;3.228;2023-04-03T06:27:53;4.10;99.90
49579;DHT22;35483;50.828;3.228;2023-04-03T06:30:20;4.20;99.90
49579;DHT22;35483;50.828;3.228;2023-04-03T06:32:46;4.20;99.90
49579;DHT22;35483;50.828;3.228;2023-04-03T06:35:12;4.30;99.90
49579;DHT22;35483;50.828;3.228;2023-04-03T06:37:38;4.30;99.90
49579;DHT22;35483;50.828;3.228;2023-04-03T06:40:04;4.30;99.90
49579;DHT22;35483;50.828;3.228;2023-04-03T06:42:30;4.40;99.90
49579;DHT22;35483;50.828;3.228;2023-04-03T06:44:55;4.40;99.90
49579;DHT22;35483;50.828;3.228;2023-04-03T06:47:21;4.50;99.90
49579;DHT22;35483;50.828;3.228;2023-04-03T06:49:47;4.60;99.90
49579;DHT22;35483;50.828;3.228;2023-04-03T06:52:13;4.60;99.90
49579;DHT22;35483;50.828;3.228;2023-04-03T06:54:39;4.60;99.90
49579;DHT22;35483;50.828;3.228;2023-04-03T06:57:05;4.70;99.90
49579;DHT22;35483;50.828;3.228;2023-04-03T06:59:31;4.70;99.90
49579;DHT22;35483;50.828;3.228;2023-04-03T07:01:57;4.80;99.90
49579;DHT22;35483;50.828;3.228;2023-04-03T07:04:24;4.90;99.90
49579;DHT22;35483;50.828;3.228;2023-04-03T07:06:50;4.90;99.90
49579;DHT22;35483;50.828;3.228;2023-04-03T07:09:16;4.90;99.90
49579;DHT22;35483;50.828;3.228;2023-04-03T07:11:41;5.00;99.90
49579;DHT22;35483;50.828;3.228;2023-04-03T07:14:07;5.10;99.90
49579;DHT22;35483;50.828;3.228;2023-04-03T07:16:34;5.20;99.90
49579;DHT22;35483;50.828;3.228;2023-04-03T07:19:01;5.20;99.90
49579;DHT22;35483;50.828;3.228;2023-04-03T07:21:27;5.20;99.90
49579;DHT22;35483;50.828;3.228;2023-04-03T07:23:53;5.30;99.90
49579;DHT22;35483;50.828;3.228;2023-04-03T07:26:19;5.40;99.90
49579;DHT22;35483;50.828;3.228;2023-04-03T07:28:46;5.40;99.90
49579;DHT22;35483;50.828;3.228;2023-04-03T07:31:14;5.50;99.90
49579;DHT22;35483;50.828;3.228;2023-04-03T07:33:41;5.50;99.90
49579;DHT22;35483;50.828;3.228;2023-04-03T07:36:07;5.60;99.90
49579;DHT22;35483;50.828;3.228;2023-04-03T07:38:34;5.60;99.90
49579;DHT22;35483;50.828;3.228;2023-04-03T07:41:00;5.70;99.90
49579;DHT22;35483;50.828;3.228;2023-04-03T07:43:26;5.80;99.90
49579;DHT22;35483;50.828;3.228;2023-04-03T07:45:53;5.80;99.90
49579;DHT22;35483;50.828;3.228;2023-04-03T07:48:23;5.80;99.90
49579;DHT22;35483;50.828;3.228;2023-04-03T07:50:50;5.90;99.90
49579;DHT22;35483;50.828;3.228;2023-04-03T07:53:16;6.00;99.90
49579;DHT22;35483;50.828;3.228;2023-04-03T07:55:43;6.00;99.90
49579;DHT22;35483;50.828;3.228;2023-04-03T07:58:13;6.10;99.90
49579;DHT22;35483;50.828;3.228;2023-04-03T08:00:40;6.10;99.90
49579;DHT22;35483;50.828;3.228;2023-04-03T08:03:06;6.20;99.90
49579;DHT22;35483;50.828;3.228;2023-04-03T08:05:41;6.20;99.90
49579;DHT22;35483;50.828;3.228;2023-04-03T08:08:08;6.30;99.90
49579;DHT22;35483;50.828;3.228;2023-04-03T08:10:34;6.40;99.90
49579;DHT22;35483;50.828;3.228;2023-04-03T08:13:01;6.40;99.90
49579;DHT22;35483;50.828;3.228;2023-04-03T08:15:27;6.50;99.90
49579;DHT22;35483;50.828;3.228;2023-04-03T08:17:53;6.60;99.90
49579;DHT22;35483;50.828;3.228;2023-04-03T08:20:18;6.60;99.90
49579;DHT22;35483;50.828;3.228;2023-04-03T08:22:45;6.70;99.90
49579;DHT22;35483;50.828;3.228;2023-04-03T08:25:10;6.70;99.90
49579;DHT22;35483;50.828;3.228;2023-04-03T08:27:36;6.80;99.90
49579;DHT22;35483;50.828;3.228;2023-04-03T08:30:03;6.90;99.90
49579;DHT22;35483;50.828;3.228;2023-04-03T08:32:29;6.90;99.90
49579;DHT22;35483;50.828;3.228;2023-04-03T08:34:55;7.00;99.90
49579;DHT22;35483;50.828;3.228;2023-04-03T08:37:21;7.00;99.90
49579;DHT22;35483;50.828;3.228;2023-04-03T08:39:47;7.10;99.90
49579;DHT22;35483;50.828;3.228;2023-04-03T08:42:33;7.10;99.90
49579;DHT22;35483;50.828;3.228;2023-04-03T08:45:18;7.20;99.90
49579;DHT22;35483;50.828;3.228;2023-04-03T08:47:59;7.20;98.90
49579;DHT22;35483;50.828;3.228;2023-04-03T08:50:33;7.30;99.90
49579;DHT22;35483;50.828;3.228;2023-04-03T08:53:02;7.40;99.90
49579;DHT22;35483;50.828;3.228;2023-04-03T08:55:34;7.40;99.90
49579;DHT22;35483;50.828;3.228;2023-04-03T08:58:21;7.50;99.90
49579;DHT22;35483;50.828;3.228;2023-04-03T09:00:58;7.50;99.90
49579;DHT22;35483;50.828;3.228;2023-04-03T09:03:24;7.50;99.90
49579;DHT22;35483;50.828;3.228;2023-04-03T09:06:16;7.60;99.70
49579;DHT22;35483;50.828;3.228;2023-04-03T09:11:24;7.70;99.90
49579;DHT22;35483;50.828;3.228;2023-04-03T09:17:21;7.80;99.90
49579;DHT22;35483;50.828;3.228;2023-04-03T09:21:57;7.90;99.90
49579;DHT22;35483;50.828;3.228;2023-04-03T09:24:24;7.90;99.70
49579;DHT22;35483;50.828;3.228;2023-04-03T09:27:23;7.90;99.80
49579;DHT22;35483;50.828;3.228;2023-04-03T09:29:43;8.00;99.70
49579;DHT22;35483;50.828;3.228;2023-04-03T09:32:33;8.10;99.50
49579;DHT22;35483;50.828;3.228;2023-04-03T09:35:03;8.00;92.90
49579;DHT22;35483;50.828;3.228;2023-04-03T09:37:46;8.10;99.50
49579;DHT22;35483;50.828;3.228;2023-04-03T09:42:52;8.30;97.70
49579;DHT22;35483;50.828;3.228;2023-04-03T09:45:37;8.30;99.50
49579;DHT22;35483;50.828;3.228;2023-04-03T09:48:17;8.40;99.20
49579;DHT22;35483;50.828;3.228;2023-04-03T09:53:39;8.40;98.50
49579;DHT22;35483;50.828;3.228;2023-04-03T10:01:29;8.50;98.10
49579;DHT22;35483;50.828;3.228;2023-04-03T10:04:16;8.50;98.50
49579;DHT22;35483;50.828;3.228;2023-04-03T10:09:26;8.50;98.40
49579;DHT22;35483;50.828;3.228;2023-04-03T10:12:10;8.60;97.20
49579;DHT22;35483;50.828;3.228;2023-04-03T10:20:23;8.60;95.00
49579;DHT22;35483;50.828;3.228;2023-04-03T10:28:50;8.70;97.00
49579;DHT22;35483;50.828;3.228;2023-04-03T10:31:28;8.80;97.60
49579;DHT22;35483;50.828;3.228;2023-04-03T10:42:15;8.90;98.10
49579;DHT22;35483;50.828;3.228;2023-04-03T10:51:22;8.90;92.10
49579;DHT22;35483;50.828;3.228;2023-04-03T10:54:00;9.00;97.30
49579;DHT22;35483;50.828;3.228;2023-04-03T11:02:48;9.10;96.60
49579;DHT22;35483;50.828;3.228;2023-04-03T11:04:51;9.10;96.50
49579;DHT22;35483;50.828;3.228;2023-04-03T11:07:27;9.10;96.50
49579;DHT22;35483;50.828;3.228;2023-04-03T11:10:20;9.10;92.90
49579;DHT22;35483;50.828;3.228;2023-04-03T11:13:11;9.20;95.90
49579;DHT22;35483;50.828;3.228;2023-04-03T11:15:38;9.30;95.70
49579;DHT22;35483;50.828;3.228;2023-04-03T11:18:19;9.30;96.40
49579;DHT22;35483;50.828;3.228;2023-04-03T11:23:39;9.40;96.40
49579;DHT22;35483;50.828;3.228;2023-04-03T11:26:17;9.40;95.20
49579;DHT22;35483;50.828;3.228;2023-04-03T11:28:43;9.40;92.80
49579;DHT22;35483;50.828;3.228;2023-04-03T11:31:41;9.40;96.60
49579;DHT22;35483;50.828;3.228;2023-04-03T11:34:45;9.40;95.20
49579;DHT22;35483;50.828;3.228;2023-04-03T11:40:27;9.40;95.20
49579;DHT22;35483;50.828;3.228;2023-04-03T11:43:02;9.50;90.80
49579;DHT22;35483;50.828;3.228;2023-04-03T11:45:50;9.60;95.00
49579;DHT22;35483;50.828;3.228;2023-04-03T11:50:45;9.70;95.30
49579;DHT22;35483;50.828;3.228;2023-04-03T11:55:52;9.70;95.00
49579;DHT22;35483;50.828;3.228;2023-04-03T12:00:54;9.70;94.30
49579;DHT22;35483;50.828;3.228;2023-04-03T12:13:39;9.90;94.70
49579;DHT22;35483;50.828;3.228;2023-04-03T12:29:34;10.00;93.80
49579;DHT22;35483;50.828;3.228;2023-04-03T12:48:25;10.30;93.30
49579;DHT22;35483;50.828;3.228;2023-04-03T12:50:51;10.30;94.10
49579;DHT22;35483;50.828;3.228;2023-04-03T12:53:36;10.40;92.70
49579;DHT22;35483;50.828;3.228;2023-04-03T12:56:23;10.40;78.60
49579;DHT22;35483;50.828;3.228;2023-04-03T12:58:50;10.40;92.00
49579;DHT22;35483;50.828;3.228;2023-04-03T13:01:20;10.40;93.30
49579;DHT22;35483;50.828;3.228;2023-04-03T13:03:57;10.40;91.60
49579;DHT22;35483;50.828;3.228;2023-04-03T13:06:30;10.50;91.40
49579;DHT22;35483;50.828;3.228;2023-04-03T13:08:58;10.50;91.40
49579;DHT22;35483;50.828;3.228;2023-04-03T13:11:38;10.50;92.10
49579;DHT22;35483;50.828;3.228;2023-04-03T13:14:22;10.60;93.00
49579;DHT22;35483;50.828;3.228;2023-04-03T13:19:23;10.60;90.70
49579;DHT22;35483;50.828;3.228;2023-04-03T13:21:49;10.70;92.70
49579;DHT22;35483;50.828;3.228;2023-04-03T13:24:17;10.70;93.10
49579;DHT22;35483;50.828;3.228;2023-04-03T13:26:43;10.70;92.60
49579;DHT22;35483;50.828;3.228;2023-04-03T13:29:33;10.70;89.20
49579;DHT22;35483;50.828;3.228;2023-04-03T13:32:02;10.70;80.70
49579;DHT22;35483;50.828;3.228;2023-04-03T13:34:36;10.70;92.00
49579;DHT22;35483;50.828;3.228;2023-04-03T13:37:02;10.80;93.10
49579;DHT22;35483;50.828;3.228;2023-04-03T13:39:39;10.80;92.90
49579;DHT22;35483;50.828;3.228;2023-04-03T13:42:17;10.80;84.10
49579;DHT22;35483;50.828;3.228;2023-04-03T13:44:47;10.80;90.90
49579;DHT22;35483;50.828;3.228;2023-04-03T13:47:22;10.80;92.80
49579;DHT22;35483;50.828;3.228;2023-04-03T13:52:50;10.80;91.60
49579;DHT22;35483;50.828;3.228;2023-04-03T13:58:01;10.80;91.30
49579;DHT22;35483;50.828;3.228;2023-04-03T14:00:29;10.90;90.00
49579;DHT22;35483;50.828;3.228;2023-04-03T14:02:56;10.80;92.20
49579;DHT22;35483;50.828;3.228;2023-04-03T14:05:23;10.90;91.50
49579;DHT22;35483;50.828;3.228;2023-04-03T14:07:50;10.90;92.20
49579;DHT22;35483;50.828;3.228;2023-04-03T14:10:17;10.90;92.60
49579;DHT22;35483;50.828;3.228;2023-04-03T14:12:42;10.90;90.50
49579;DHT22;35483;50.828;3.228;2023-04-03T14:15:28;11.00;90.30
49579;DHT22;35483;50.828;3.228;2023-04-03T14:17:55;11.00;91.80
49579;DHT22;35483;50.828;3.228;2023-04-03T14:20:24;11.00;91.40
49579;DHT22;35483;50.828;3.228;2023-04-03T14:22:51;11.00;91.00
49579;DHT22;35483;50.828;3.228;2023-04-03T14:25:17;11.00;91.30
49579;DHT22;35483;50.828;3.228;2023-04-03T14:27:46;11.00;91.80
49579;DHT22;35483;50.828;3.228;2023-04-03T14:30:22;11.00;90.80
49579;DHT22;35483;50.828;3.228;2023-04-03T14:32:48;11.10;90.80
49579;DHT22;35483;50.828;3.228;2023-04-03T14:35:15;11.10;92.40
49579;DHT22;35483;50.828;3.228;2023-04-03T14:37:41;11.10;92.00
49579;DHT22;35483;50.828;3.228;2023-04-03T14:40:08;11.00;91.30
49579;DHT22;35483;50.828;3.228;2023-04-03T14:42:37;11.10;90.70
49579;DHT22;35483;50.828;3.228;2023-04-03T14:45:09;11.10;91.10
49579;DHT22;35483;50.828;3.228;2023-04-03T14:47:47;11.10;90.20
49579;DHT22;35483;50.828;3.228;2023-04-03T14:50:20;11.10;91.00
49579;DHT22;35483;50.828;3.228;2023-04-03T14:52:47;11.10;83.70
49579;DHT22;35483;50.828;3.228;2023-04-03T14:55:15;11.10;90.90
49579;DHT22;35483;50.828;3.228;2023-04-03T14:57:42;11.10;91.10
49579;DHT22;35483;50.828;3.228;2023-04-03T15:00:15;11.10;90.90
49579;DHT22;35483;50.828;3.228;2023-04-03T15:02:41;11.00;72.20
49579;DHT22;35483;50.828;3.228;2023-04-03T15:05:09;11.00;89.40
49579;DHT22;35483;50.828;3.228;2023-04-03T15:07:47;11.00;81.60
49579;DHT22;35483;50.828;3.228;2023-04-03T15:10:18;11.00;77.50
49579;DHT22;35483;50.828;3.228;2023-04-03T15:12:44;11.00;82.90
49579;DHT22;35483;50.828;3.228;2023-04-03T15:15:12;11.00;90.00
49579;DHT22;35483;50.828;3.228;2023-04-03T15:17:38;11.00;89.60
49579;DHT22;35483;50.828;3.228;2023-04-03T15:20:25;10.90;88.70
49579;DHT22;35483;50.828;3.228;2023-04-03T15:22:51;11.00;77.80
49579;DHT22;35483;50.828;3.228;2023-04-03T15:25:17;11.00;87.80
49579;DHT22;35483;50.828;3.228;2023-04-03T15:27:43;11.00;90.20
49579;DHT22;35483;50.828;3.228;2023-04-03T15:30:19;11.00;88.40
49579;DHT22;35483;50.828;3.228;2023-04-03T15:32:45;11.00;87.70
49579;DHT22;35483;50.828;3.228;2023-04-03T15:35:11;10.90;88.10
49579;DHT22;35483;50.828;3.228;2023-04-03T15:37:37;11.00;90.40
49579;DHT22;35483;50.828;3.228;2023-04-03T15:40:04;11.00;90.40
49579;DHT22;35483;50.828;3.228;2023-04-03T15:42:30;11.00;87.90
49579;DHT22;35483;50.828;3.228;2023-04-03T15:44:56;10.90;87.00
49579;DHT22;35483;50.828;3.228;2023-04-03T15:47:22;11.00;89.70
49579;DHT22;35483;50.828;3.228;2023-04-03T15:49:47;10.90;85.50
49579;DHT22;35483;50.828;3.228;2023-04-03T15:52:13;10.90;85.40
49579;DHT22;35483;50.828;3.228;2023-04-03T15:54:39;10.90;85.60
49579;DHT22;35483;50.828;3.228;2023-04-03T15:57:05;10.90;85.50
49579;DHT22;35483;50.828;3.228;2023-04-03T15:59:31;10.90;84.50
49579;DHT22;35483;50.828;3.228;2023-04-03T16:01:58;10.90;85.80
49579;DHT22;35483;50.828;3.228;2023-04-03T16:04:25;10.90;86.50
49579;DHT22;35483;50.828;3.228;2023-04-03T16:06:50;10.90;84.50
49579;DHT22;35483;50.828;3.228;2023-04-03T16:09:16;10.90;86.40
49579;DHT22;35483;50.828;3.228;2023-04-03T16:11:42;10.80;85.10
49579;DHT22;35483;50.828;3.228;2023-04-03T16:14:09;10.80;86.50
49579;DHT22;35483;50.828;3.228;2023-04-03T16:16:35;10.80;83.70
49579;DHT22;35483;50.828;3.228;2023-04-03T16:19:02;10.80;82.70
49579;DHT22;35483;50.828;3.228;2023-04-03T16:21:28;10.80;87.60
49579;DHT22;35483;50.828;3.228;2023-04-03T16:23:57;10.80;86.90
49579;DHT22;35483;50.828;3.228;2023-04-03T16:26:23;10.80;84.90
49579;DHT22;35483;50.828;3.228;2023-04-03T16:28:49;10.80;87.70
49579;DHT22;35483;50.828;3.228;2023-04-03T16:31:15;10.70;86.30
49579;DHT22;35483;50.828;3.228;2023-04-03T16:33:41;10.70;84.00
49579;DHT22;35483;50.828;3.228;2023-04-03T16:36:06;10.70;84.50
49579;DHT22;35483;50.828;3.228;2023-04-03T16:38:32;10.70;85.80
49579;DHT22;35483;50.828;3.228;2023-04-03T16:40:58;10.60;83.20
49579;DHT22;35483;50.828;3.228;2023-04-03T16:43:27;10.60;82.70
49579;DHT22;35483;50.828;3.228;2023-04-03T16:45:53;10.70;85.40
49579;DHT22;35483;50.828;3.228;2023-04-03T16:48:19;10.70;85.60
49579;DHT22;35483;50.828;3.228;2023-04-03T16:50:49;10.60;86.20
49579;DHT22;35483;50.828;3.228;2023-04-03T16:53:17;10.60;81.90
49579;DHT22;35483;50.828;3.228;2023-04-03T16:55:43;10.60;84.00
49579;DHT22;35483;50.828;3.228;2023-04-03T16:58:09;10.60;84.20
49579;DHT22;35483;50.828;3.228;2023-04-03T17:00:35;10.50;83.90
49579;DHT22;35483;50.828;3.228;2023-04-03T17:03:02;10.50;84.20
49579;DHT22;35483;50.828;3.228;2023-04-03T17:05:27;10.50;82.20
49579;DHT22;35483;50.828;3.228;2023-04-03T17:07:53;10.50;83.10
49579;DHT22;35483;50.828;3.228;2023-04-03T17:10:19;10.50;85.80
49579;DHT22;35483;50.828;3.228;2023-04-03T17:12:44;10.50;85.60
49579;DHT22;35483;50.828;3.228;2023-04-03T17:15:10;10.60;85.60
49579;DHT22;35483;50.828;3.228;2023-04-03T17:17:36;10.70;83.80
49579;DHT22;35483;50.828;3.228;2023-04-03T17:20:03;10.90;86.20
49579;DHT22;35483;50.828;3.228;2023-04-03T17:22:29;11.00;85.70
49579;DHT22;35483;50.828;3.228;2023-04-03T17:24:55;11.10;86.60
49579;DHT22;35483;50.828;3.228;2023-04-03T17:27:23;11.20;86.40
49579;DHT22;35483;50.828;3.228;2023-04-03T17:29:49;11.20;86.60
49579;DHT22;35483;50.828;3.228;2023-04-03T17:32:14;11.30;86.30
49579;DHT22;35483;50.828;3.228;2023-04-03T17:34:40;11.40;87.70
49579;DHT22;35483;50.828;3.228;2023-04-03T17:37:06;11.40;87.30
49579;DHT22;35483;50.828;3.228;2023-04-03T17:39:32;11.40;87.00
49579;DHT22;35483;50.828;3.228;2023-04-03T17:41:57;11.20;85.30
49579;DHT22;35483;50.828;3.228;2023-04-03T17:44:23;11.00;82.50
49579;DHT22;35483;50.828;3.228;2023-04-03T17:46:49;11.00;84.80
49579;DHT22;35483;50.828;3.228;2023-04-03T17:49:15;10.90;87.00
49579;DHT22;35483;50.828;3.228;2023-04-03T17:51:43;10.70;85.10
49579;DHT22;35483;50.828;3.228;2023-04-03T17:54:08;10.60;85.20